This is the latest recevied weather packets stored in our database for station/object W4BOD. If no packets are shown the sender has not sent any weather packets the latest 1 day(s).
| Time | Temp. | Humidity | Pressure | Rain* | Wind** | Luminosity | Snow |
|---|---|---|---|---|---|---|---|
| 1778020998 | 21.67° C | 61% | 1008.6 hPa | 0 mm | 2.24 m/s, 237° | 41 W/m² | - |
| 1778020694 | 22.22° C | 60% | 1009 hPa | 0 mm | 1.34 m/s, 352° | 66 W/m² | - |
| 1778020392 | 22.22° C | 58% | 1009 hPa | 0 mm | 3.13 m/s, 238° | 119 W/m² | - |
| 1778020087 | 22.78° C | 57% | 1009.1 hPa | 0 mm | 1.34 m/s, 302° | 143 W/m² | - |
| 1778019783 | 22.78° C | 56% | 1009.2 hPa | 0 mm | 1.34 m/s, 209° | 191 W/m² | - |
| 1778019481 | 22.78° C | 56% | 1009.1 hPa | 0 mm | 2.68 m/s, 199° | 188 W/m² | - |
| 1778019177 | 23.33° C | 54% | 1008.9 hPa | 0 mm | 0.89 m/s, 191° | 215 W/m² | - |
| 1778018874 | 23.33° C | 53% | 1008.2 hPa | 0 mm | 2.68 m/s, 287° | 162 W/m² | - |
| 1778018571 | 23.33° C | 51% | 1008.3 hPa | 0 mm | 3.13 m/s, 178° | 119 W/m² | - |
| 1778018269 | 23.33° C | 51% | 1008.7 hPa | 0 mm | 2.68 m/s, 153° | 141 W/m² | - |
| 1778017967 | 23.89° C | 50% | 1009.2 hPa | 0 mm | 6.71 m/s, 181° | 147 W/m² | - |
| 1778017665 | 23.89° C | 53% | 1009.3 hPa | 0 mm | 1.79 m/s, 158° | 182 W/m² | - |
| 1778017362 | 23.89° C | 54% | 1009.2 hPa | 0 mm | 4.92 m/s, 246° | 173 W/m² | - |
| 1778017059 | 23.89° C | 54% | 1009.1 hPa | 0 mm | 2.68 m/s, 215° | 138 W/m² | - |
| 1778016756 | 23.89° C | 54% | 1009.2 hPa | 0 mm | 1.34 m/s, 230° | 115 W/m² | - |
| 1778016452 | 23.89° C | 52% | 1009 hPa | 0 mm | 3.13 m/s, 205° | 139 W/m² | - |
| 1778016150 | 23.89° C | 53% | 1009 hPa | 0 mm | 1.34 m/s, 163° | 201 W/m² | - |
| 1778015846 | 25° C | 50% | 1009 hPa | 0 mm | 6.26 m/s, 232° | 208 W/m² | - |
| 1778015544 | 25° C | 50% | 1008.8 hPa | 0 mm | 5.36 m/s, 253° | 220 W/m² | - |
| 1778015240 | 25° C | 50% | 1008.4 hPa | 0 mm | 1.79 m/s, 228° | 187 W/m² | - |
| 1778014937 | 24.44° C | 50% | 1008.6 hPa | 0 mm | 3.13 m/s, 208° | 242 W/m² | - |
| 1778014634 | 25° C | 50% | 1008.5 hPa | 0 mm | 3.13 m/s, 252° | 170 W/m² | - |
| 1778014332 | 25.56° C | 50% | 1008.6 hPa | 0 mm | 3.58 m/s, 179° | 506 W/m² | - |
| 1778014028 | 25° C | 51% | 1008.5 hPa | 0 mm | 2.24 m/s, 185° | 156 W/m² | - |
| 1778013727 | 25° C | 50% | 1008.6 hPa | 0 mm | 3.13 m/s, 271° | 317 W/m² | - |
* Rain latest hour (hover to see other rain measurements)
** Current wind speed in m/s (hover to see current wind gust speed)